Terminal Aerodrome Forecast
Issued by NWS

Home | Current Version | Previous Version | Text Only | Print | Product List | Glossary On
Versions: 1 2 3 4 5 6 7 8 9 10 11 12 13 14 15 16
000
FTUS44 KOUN 230522
TAFPNC
TAF
KPNC 230522Z 2306/2406 16005KT P6SM BKN040
      TEMPO 2306/2310 4SM -RA BR OVC020
     FM231000 16007KT 5SM BR OVC025
     FM231600 16009KT P6SM BKN040=

USA.gov is the U.S. government's official web portal to all federal, state and local government web resources and services.